Niangua, Missouri
Current Conditions -  °F | °C
As of 11:52 PM on Thursday 27 Nov 2014 (Local Time) from KSGF Reporting Station
Clear Clear  
Wind Chill: 24°   Ceiling: Unl
Heat Index: 33°   Visibility: 10mi
Dew Point: 22°   Wind: 13mph
Humidity: 64%   Direction: 160°SSE
Pressure: 30.29"   Gusts: NA
Location:  37.39°N, 92.83°W
Report Text: KSGF 280552Z 16011KT 10SM CLR 01/M06 A3029 RMK AO2 SLP268 T00061056 10028 21011 400561017 56015
Loading
Personal Weather Stations






























Interactive Weather Map New forecast layout! Learn more

10-Day Weather Forecast

Advertisements
Track Severe Weather on mobile